Time;durP1;ratioP1;P1;durP2;ratioP2;P2;SDS_P1;SDS_P2;PMS_P1;PMS_P2;Temp;Humidity;BMP_temperature;BMP_pressure;BME280_temperature;BME280_humidity;BME280_pressure;Samples;Min_cycle;Max_cycle;Signal;HPM_P1;HPM_P2
2023/09/17 04:36:53;;;;;;;4.47;3.13;;;;;;;;;;5115627;27;20409;-86
2023/09/17 04:39:18;;;;;;;8.10;4.57;;;;;;;;;;5084527;28;20055;-87
2023/09/17 04:41:44;;;;;;;4.85;2.85;;;;;;;;;;5081539;28;20028;-86
2023/09/17 04:44:10;;;;;;;7.25;4.55;;;;;;;;;;5092331;28;20031;-87
2023/09/17 04:47:12;;;;;;;6.13;3.90;;;;;;;;;;5090366;28;20024;-92
2023/09/17 04:49:38;;;;;;;5.05;3.53;;;;;;;;;;5083034;28;20676;-88
2023/09/17 04:52:03;;;;;;;6.25;4.40;;;;;;;;;;5102471;28;20051;-85
2023/09/17 04:54:30;;;;;;;4.82;3.22;;;;;;;;;;5074036;28;20392;-85
2023/09/17 04:56:56;;;;;;;4.53;3.45;;;;;;;;;;5078916;28;20032;-86
2023/09/17 04:59:22;;;;;;;3.83;2.75;;;;;;;;;;5089909;28;20040;-86
2023/09/17 05:01:48;;;;;;;4.28;3.45;;;;;;;;;;5074031;28;20035;-83
2023/09/17 05:04:15;;;;;;;3.83;3.28;;;;;;;;;;5088826;28;20021;-86
2023/09/17 05:06:42;;;;;;;3.53;2.55;;;;;;;;;;5083015;28;20100;-84
2023/09/17 05:09:08;;;;;;;5.07;3.20;;;;;;;;;;5065003;28;20021;-83
2023/09/17 05:11:33;;;;;;;4.38;3.35;;;;;;;;;;5091512;28;20027;-84
2023/09/17 05:14:01;;;;;;;5.85;3.05;;;;;;;;;;5095236;28;20108;-85
2023/09/17 05:16:26;;;;;;;4.38;3.08;;;;;;;;;;5088885;28;20150;-81
2023/09/17 05:18:52;;;;;;;5.38;4.05;;;;;;;;;;5084655;28;20520;-81
2023/09/17 05:21:19;;;;;;;5.53;3.95;;;;;;;;;;5070745;28;20048;-81
2023/09/17 05:23:45;;;;;;;6.05;4.03;;;;;;;;;;5090440;28;20032;-80
2023/09/17 05:26:10;;;;;;;4.07;2.80;;;;;;;;;;5075596;28;20028;-82
2023/09/17 05:28:35;;;;;;;4.07;3.65;;;;;;;;;;5098825;28;20034;-81
2023/09/17 05:31:01;;;;;;;6.38;3.47;;;;;;;;;;5064341;28;20027;-80
2023/09/17 05:33:27;;;;;;;5.47;3.28;;;;;;;;;;5091082;28;20043;-84
2023/09/17 05:35:56;;;;;;;5.05;3.55;;;;;;;;;;5071503;28;20114;-85
2023/09/17 05:38:23;;;;;;;6.55;4.57;;;;;;;;;;5052522;28;20037;-84
2023/09/17 05:40:48;;;;;;;5.80;4.10;;;;;;;;;;5079811;28;20032;-88
2023/09/17 05:43:14;;;;;;;6.85;3.45;;;;;;;;;;5078916;28;20030;-84
2023/09/17 05:45:39;;;;;;;3.83;3.05;;;;;;;;;;5081860;28;20091;-89
2023/09/17 05:48:05;;;;;;;4.75;3.33;;;;;;;;;;5046469;28;20068;-88
2023/09/17 05:50:30;;;;;;;4.55;3.35;;;;;;;;;;5041392;28;20025;-89
2023/09/17 05:52:57;;;;;;;5.18;3.70;;;;;;;;;;5049237;28;20116;-84
2023/09/17 05:55:22;;;;;;;4.88;4.00;;;;;;;;;;5068197;28;20031;-80
2023/09/17 05:57:48;;;;;;;4.70;3.08;;;;;;;;;;5057809;28;20029;-81
2023/09/17 06:00:13;;;;;;;3.55;2.97;;;;;;;;;;5047991;28;20040;-81
2023/09/17 06:02:39;;;;;;;5.47;3.63;;;;;;;;;;5023641;28;20060;-81
2023/09/17 06:05:05;;;;;;;4.20;2.85;;;;;;;;;;5047806;28;20025;-81
2023/09/17 06:07:30;;;;;;;5.65;3.80;;;;;;;;;;5025781;28;20068;-81
2023/09/17 06:09:56;;;;;;;7.10;4.22;;;;;;;;;;5042421;28;20068;-79
2023/09/17 06:12:22;;;;;;;5.85;3.67;;;;;;;;;;5064625;28;20425;-79
2023/09/17 06:14:48;;;;;;;5.53;3.55;;;;;;;;;;5050259;28;20107;-81
2023/09/17 06:17:13;;;;;;;6.68;3.20;;;;;;;;;;5049589;28;20155;-80
2023/09/17 06:19:38;;;;;;;4.47;2.92;;;;;;;;;;5048364;28;20389;-79
2023/09/17 06:22:04;;;;;;;5.43;3.50;;;;;;;;;;5066644;28;20083;-79
2023/09/17 06:24:29;;;;;;;5.10;3.40;;;;;;;;;;5031965;28;20048;-79
2023/09/17 06:26:55;;;;;;;4.28;3.10;;;;;;;;;;5047865;28;20026;-79
2023/09/17 06:29:21;;;;;;;9.73;3.72;;;;;;;;;;5048798;28;20484;-80
2023/09/17 06:31:47;;;;;;;7.25;4.13;;;;;;;;;;5043114;28;20028;-81
2023/09/17 06:34:12;;;;;;;7.57;5.07;;;;;;;;;;5060894;28;20058;-82
2023/09/17 06:36:38;;;;;;;8.40;3.72;;;;;;;;;;5059827;28;20099;-82
2023/09/17 06:39:04;;;;;;;8.73;4.30;;;;;;;;;;5075593;28;20028;-80
2023/09/17 06:41:30;;;;;;;5.78;3.67;;;;;;;;;;5073906;28;20391;-82
2023/09/17 06:43:55;;;;;;;4.65;3.47;;;;;;;;;;5089377;28;20032;-80
2023/09/17 06:46:23;;;;;;;4.72;3.40;;;;;;;;;;5082856;28;20086;-82
2023/09/17 06:48:49;;;;;;;9.98;5.70;;;;;;;;;;5083713;28;20042;-80
2023/09/17 06:51:15;;;;;;;5.28;3.47;;;;;;;;;;5086531;28;20040;-80
2023/09/17 06:53:40;;;;;;;8.10;4.63;;;;;;;;;;5088748;28;20028;-79
2023/09/17 06:56:08;;;;;;;3.50;2.75;;;;;;;;;;5083194;28;20372;-81
2023/09/17 06:58:36;;;;;;;4.13;2.95;;;;;;;;;;5083170;28;20032;-79
2023/09/17 07:01:02;;;;;;;5.25;3.47;;;;;;;;;;5087762;28;20360;-79
2023/09/17 07:03:27;;;;;;;5.28;3.63;;;;;;;;;;5083152;28;20073;-84
2023/09/17 07:05:53;;;;;;;6.35;4.03;;;;;;;;;;5088919;28;20070;-82
2023/09/17 07:08:19;;;;;;;3.83;2.88;;;;;;;;;;5090169;28;20027;-80
2023/09/17 07:10:45;;;;;;;4.20;2.50;;;;;;;;;;5083731;28;20036;-81
2023/09/17 07:13:11;;;;;;;6.53;4.15;;;;;;;;;;5091294;28;20533;-80
2023/09/17 07:15:37;;;;;;;4.60;3.22;;;;;;;;;;5083614;28;20038;-81
2023/09/17 07:18:03;;;;;;;6.35;3.65;;;;;;;;;;5088193;28;20031;-80
2023/09/17 07:20:28;;;;;;;8.57;4.05;;;;;;;;;;5085683;28;20048;-80
2023/09/17 07:22:54;;;;;;;5.80;4.13;;;;;;;;;;5087882;28;20028;-79
2023/09/17 07:25:19;;;;;;;6.28;3.83;;;;;;;;;;5082639;28;20024;-79
2023/09/17 07:27:44;;;;;;;5.47;3.15;;;;;;;;;;5088935;28;20024;-78
2023/09/17 07:30:10;;;;;;;5.18;3.10;;;;;;;;;;5084905;28;20771;-82
2023/09/17 07:32:37;;;;;;;4.50;3.10;;;;;;;;;;5077889;28;20055;-79
2023/09/17 07:35:03;;;;;;;4.35;2.97;;;;;;;;;;5071136;28;20037;-79
2023/09/17 07:37:28;;;;;;;5.43;3.22;;;;;;;;;;5062304;28;20042;-82
2023/09/17 07:39:59;;;;;;;5.30;3.38;;;;;;;;;;5050763;28;20091;-82
2023/09/17 07:42:24;;;;;;;5.57;2.88;;;;;;;;;;5065429;28;20128;-81
2023/09/17 07:44:50;;;;;;;6.35;3.22;;;;;;;;;;5066192;28;20516;-80
2023/09/17 07:47:17;;;;;;;5.35;3.45;;;;;;;;;;5048456;28;20020;-80
2023/09/17 07:49:42;;;;;;;6.43;4.25;;;;;;;;;;5065525;28;20443;-81
2023/09/17 07:52:08;;;;;;;5.00;3.00;;;;;;;;;;5065922;28;20024;-81
2023/09/17 07:54:39;;;;;;;6.95;3.28;;;;;;;;;;5067144;28;20058;-81
2023/09/17 07:57:05;;;;;;;4.38;2.85;;;;;;;;;;5064226;28;20036;-82
2023/09/17 07:59:31;;;;;;;4.65;3.20;;;;;;;;;;5048687;28;20716;-81
2023/09/17 08:01:59;;;;;;;4.45;2.85;;;;;;;;;;5068506;28;20024;-82
2023/09/17 08:04:25;;;;;;;7.05;4.32;;;;;;;;;;5045198;28;20551;-82
2023/09/17 08:06:51;;;;;;;7.43;4.03;;;;;;;;;;5070356;28;20024;-80
2023/09/17 08:09:17;;;;;;;6.20;3.38;;;;;;;;;;5055973;28;20388;-82
2023/09/17 08:11:43;;;;;;;4.55;3.20;;;;;;;;;;5050797;28;20115;-81
2023/09/17 08:14:11;;;;;;;4.95;3.53;;;;;;;;;;5046814;28;20029;-82
2023/09/17 08:16:37;;;;;;;4.72;3.53;;;;;;;;;;5064114;28;20070;-82
2023/09/17 08:19:03;;;;;;;8.15;4.22;;;;;;;;;;5046533;28;20474;-81
2023/09/17 08:21:28;;;;;;;5.25;3.63;;;;;;;;;;5060632;28;20020;-82
2023/09/17 08:23:54;;;;;;;5.20;3.05;;;;;;;;;;5046757;28;20028;-81
2023/09/17 08:26:20;;;;;;;4.45;3.25;;;;;;;;;;5063749;28;20032;-81
2023/09/17 08:28:47;;;;;;;7.93;3.35;;;;;;;;;;5056979;28;20036;-82
2023/09/17 08:31:12;;;;;;;5.25;3.63;;;;;;;;;;5062087;28;20020;-83
2023/09/17 08:33:38;;;;;;;6.00;2.95;;;;;;;;;;5062258;28;20043;-81
2023/09/17 08:36:05;;;;;;;5.90;3.55;;;;;;;;;;5072885;28;20083;-82
2023/09/17 08:38:30;;;;;;;3.83;2.42;;;;;;;;;;5083904;28;20020;-81
2023/09/17 08:40:58;;;;;;;4.25;2.72;;;;;;;;;;5089355;28;20050;-82
2023/09/17 08:43:23;;;;;;;3.80;2.28;;;;;;;;;;5079157;28;20085;-81
2023/09/17 08:45:50;;;;;;;5.60;3.08;;;;;;;;;;5087801;28;20429;-82
2023/09/17 08:48:17;;;;;;;6.50;3.13;;;;;;;;;;5084420;28;20581;-82
2023/09/17 08:50:46;;;;;;;4.28;2.97;;;;;;;;;;5087721;28;20030;-81
2023/09/17 08:53:18;;;;;;;4.53;3.15;;;;;;;;;;5085892;28;20435;-83
2023/09/17 08:55:43;;;;;;;3.47;1.83;;;;;;;;;;5084957;28;20140;-81
2023/09/17 08:58:15;;;;;;;4.05;2.78;;;;;;;;;;5089870;28;20103;-81
2023/09/17 09:00:48;;;;;;;3.55;2.80;;;;;;;;;;5084990;28;20036;-82
2023/09/17 09:03:15;;;;;;;5.00;4.05;;;;;;;;;;5080063;28;20036;-82
2023/09/17 09:05:43;;;;;;;5.57;3.70;;;;;;;;;;5086875;28;20036;-81
2023/09/17 09:08:09;;;;;;;6.47;3.85;;;;;;;;;;5088619;28;20160;-81
2023/09/17 09:10:34;;;;;;;8.18;4.28;;;;;;;;;;5067504;28;20032;-81
2023/09/17 09:13:00;;;;;;;5.90;3.08;;;;;;;;;;5074096;28;20106;-81
2023/09/17 09:15:26;;;;;;;6.55;3.25;;;;;;;;;;5072555;28;20553;-82
2023/09/17 09:17:55;;;;;;;5.20;3.17;;;;;;;;;;5071222;28;20114;-81
2023/09/17 09:20:21;;;;;;;6.68;3.80;;;;;;;;;;5087798;28;20028;-83
2023/09/17 09:22:47;;;;;;;7.38;3.67;;;;;;;;;;5088676;28;20031;-81
2023/09/17 09:25:14;;;;;;;4.53;2.85;;;;;;;;;;5087116;28;20408;-81
2023/09/17 09:27:39;;;;;;;5.30;3.42;;;;;;;;;;5086974;28;20067;-83
2023/09/17 09:30:08;;;;;;;8.45;4.47;;;;;;;;;;5088542;28;20035;-80
2023/09/17 09:32:34;;;;;;;5.55;3.65;;;;;;;;;;5080790;28;20024;-82
2023/09/17 09:35:01;;;;;;;7.25;3.78;;;;;;;;;;5080584;28;20052;-79
2023/09/17 09:37:26;;;;;;;8.80;3.70;;;;;;;;;;5070930;28;20024;-80
2023/09/17 09:39:52;;;;;;;7.10;3.17;;;;;;;;;;5071552;28;21121;-81
2023/09/17 09:42:18;;;;;;;7.97;3.95;;;;;;;;;;5065584;28;20096;-81
2023/09/17 09:44:43;;;;;;;8.68;4.85;;;;;;;;;;5051190;28;20033;-80
2023/09/17 09:47:09;;;;;;;7.15;4.28;;;;;;;;;;5053050;28;20029;-81
2023/09/17 09:49:43;;;;;;;7.07;4.07;;;;;;;;;;5045885;28;20519;-81
2023/09/17 09:52:10;;;;;;;7.75;3.95;;;;;;;;;;5073080;28;20052;-81
2023/09/17 09:54:35;;;;;;;7.00;4.82;;;;;;;;;;5067693;28;20044;-82
2023/09/17 09:57:05;;;;;;;6.43;3.70;;;;;;;;;;5072666;28;20476;-82
2023/09/17 09:59:34;;;;;;;7.80;3.50;;;;;;;;;;5066688;28;20025;-82
2023/09/17 10:02:04;;;;;;;5.95;4.18;;;;;;;;;;5063861;28;20388;-81
2023/09/17 10:04:29;;;;;;;6.15;3.88;;;;;;;;;;5064283;28;20376;-81
2023/09/17 10:07:02;;;;;;;4.78;3.15;;;;;;;;;;5069596;28;20040;-82
2023/09/17 10:09:28;;;;;;;7.30;3.75;;;;;;;;;;5050681;28;20032;-81
2023/09/17 10:11:53;;;;;;;4.43;3.00;;;;;;;;;;5070227;28;20031;-82
2023/09/17 10:14:21;;;;;;;5.72;3.05;;;;;;;;;;5051022;28;20499;-82
2023/09/17 10:16:48;;;;;;;9.38;4.10;;;;;;;;;;5052507;28;20030;-81
2023/09/17 10:19:18;;;;;;;5.53;3.53;;;;;;;;;;5047820;28;20032;-81
2023/09/17 10:21:46;;;;;;;8.98;3.92;;;;;;;;;;5053125;28;20089;-84
2023/09/17 10:24:13;;;;;;;5.53;3.35;;;;;;;;;;5051921;28;20036;-82
2023/09/17 10:26:42;;;;;;;6.22;3.72;;;;;;;;;;5070454;28;20480;-81
2023/09/17 10:29:12;;;;;;;6.90;3.60;;;;;;;;;;5067112;28;20468;-81
2023/09/17 10:31:40;;;;;;;4.55;3.50;;;;;;;;;;5068556;28;20103;-82
2023/09/17 10:34:06;;;;;;;5.78;3.92;;;;;;;;;;5069223;28;20476;-82
2023/09/17 10:36:33;;;;;;;5.82;3.58;;;;;;;;;;5067785;28;20101;-82
2023/09/17 10:38:59;;;;;;;5.90;3.10;;;;;;;;;;5070192;28;20419;-83
2023/09/17 10:41:29;;;;;;;7.65;4.07;;;;;;;;;;5068716;28;20327;-82
2023/09/17 10:43:57;;;;;;;6.35;4.15;;;;;;;;;;5071349;28;20047;-82
2023/09/17 10:46:23;;;;;;;5.70;3.20;;;;;;;;;;5051491;28;20693;-82
2023/09/17 10:48:50;;;;;;;8.77;3.67;;;;;;;;;;5070175;28;20050;-81
2023/09/17 10:51:17;;;;;;;5.20;3.72;;;;;;;;;;5052088;28;20116;-81
2023/09/17 10:53:43;;;;;;;7.15;4.88;;;;;;;;;;5049593;28;20062;-81
2023/09/17 10:56:10;;;;;;;8.40;4.82;;;;;;;;;;5070261;28;20051;-81
2023/09/17 10:58:38;;;;;;;5.70;3.58;;;;;;;;;;5047397;28;20028;-81
2023/09/17 11:01:09;;;;;;;9.15;4.55;;;;;;;;;;5066574;28;20032;-80
2023/09/17 11:03:39;;;;;;;6.10;3.50;;;;;;;;;;5069856;28;20060;-81
2023/09/17 11:06:14;;;;;;;6.65;4.05;;;;;;;;;;5067502;28;20021;-80
2023/09/17 11:08:44;;;;;;;6.97;4.28;;;;;;;;;;5047524;28;20028;-81
2023/09/17 11:11:16;;;;;;;8.10;4.25;;;;;;;;;;5065711;28;20055;-80
2023/09/17 11:13:46;;;;;;;9.00;4.85;;;;;;;;;;5068146;28;20036;-81
2023/09/17 11:16:18;;;;;;;5.53;3.40;;;;;;;;;;5062546;28;20017;-82
2023/09/17 11:19:18;;;;;;;7.70;4.15;;;;;;;;;;5052202;28;20129;-81
2023/09/17 11:21:47;;;;;;;6.25;3.85;;;;;;;;;;5014025;28;20109;-81
2023/09/17 11:24:13;;;;;;;8.77;4.32;;;;;;;;;;5066583;28;20468;-81
2023/09/17 11:26:41;;;;;;;5.25;3.13;;;;;;;;;;5058034;28;20115;-81
2023/09/17 11:29:08;;;;;;;6.60;4.38;;;;;;;;;;5065550;28;20040;-80
2023/09/17 11:31:50;;;;;;;7.30;4.05;;;;;;;;;;5069049;28;20067;-81
2023/09/17 11:34:15;;;;;;;6.88;4.40;;;;;;;;;;5050039;28;20036;-81
2023/09/17 11:36:41;;;;;;;6.03;3.70;;;;;;;;;;5079727;28;20405;-81
2023/09/17 11:39:07;;;;;;;6.18;3.80;;;;;;;;;;5067758;28;20472;-81
2023/09/17 11:41:36;;;;;;;12.45;4.00;;;;;;;;;;5078398;28;20099;-80
2023/09/17 11:44:05;;;;;;;6.90;4.28;;;;;;;;;;5082210;28;20123;-80
2023/09/17 11:46:31;;;;;;;7.88;3.35;;;;;;;;;;5071407;28;20434;-81
2023/09/17 11:48:56;;;;;;;6.90;3.53;;;;;;;;;;5070982;28;20088;-80
2023/09/17 11:51:32;;;;;;;7.07;3.97;;;;;;;;;;5076741;28;20036;-80
2023/09/17 11:54:08;;;;;;;8.48;4.57;;;;;;;;;;5077927;28;20114;-80
2023/09/17 11:56:49;;;;;;;9.80;4.07;;;;;;;;;;5080713;28;20047;-81
2023/09/17 11:59:18;;;;;;;5.03;3.00;;;;;;;;;;5075843;28;20425;-81
2023/09/17 12:01:52;;;;;;;6.60;3.90;;;;;;;;;;5082215;28;20040;-80
2023/09/17 12:04:18;;;;;;;8.75;3.33;;;;;;;;;;5085365;28;20051;-80
2023/09/17 12:06:47;;;;;;;9.77;3.20;;;;;;;;;;5081698;28;20119;-81
2023/09/17 12:12:06;;;;;;;5.18;3.42;;;;;;;;;;5068436;28;20457;-81
2023/09/17 12:14:33;;;;;;;5.40;3.08;;;;;;;;;;5082456;28;20107;-80
2023/09/17 12:16:58;;;;;;;5.28;3.22;;;;;;;;;;5075301;28;20060;-82
2023/09/17 12:19:25;;;;;;;5.03;3.80;;;;;;;;;;5064925;28;20166;-80
2023/09/17 12:21:53;;;;;;;5.68;3.35;;;;;;;;;;5066920;28;20028;-81
2023/09/17 12:24:23;;;;;;;4.88;2.90;;;;;;;;;;5068755;28;20059;-80
2023/09/17 12:27:34;;;;;;;5.82;3.67;;;;;;;;;;5081279;28;20544;-81
2023/09/17 12:30:00;;;;;;;5.38;3.25;;;;;;;;;;5081038;28;20054;-81
2023/09/17 12:32:29;;;;;;;5.35;3.58;;;;;;;;;;5086445;28;20502;-82
2023/09/17 12:34:56;;;;;;;4.60;3.30;;;;;;;;;;5083137;28;20044;-81
2023/09/17 12:37:22;;;;;;;8.73;4.47;;;;;;;;;;5049407;28;20024;-81
2023/09/17 12:39:49;;;;;;;6.32;3.55;;;;;;;;;;5048425;28;20123;-81
2023/09/17 12:42:15;;;;;;;5.78;2.88;;;;;;;;;;5048433;28;20025;-81
2023/09/17 12:44:41;;;;;;;9.75;3.28;;;;;;;;;;5066460;28;20103;-81
2023/09/17 12:47:07;;;;;;;3.97;2.67;;;;;;;;;;5069846;28;20108;-82
2023/09/17 12:49:33;;;;;;;4.53;3.15;;;;;;;;;;5066082;28;20492;-82
2023/09/17 12:52:02;;;;;;;5.97;2.58;;;;;;;;;;5066300;28;20036;-81
2023/09/17 12:54:27;;;;;;;4.05;2.80;;;;;;;;;;5067920;28;20522;-82
2023/09/17 12:56:55;;;;;;;5.13;2.58;;;;;;;;;;5069796;28;20025;-81
2023/09/17 12:59:31;;;;;;;5.70;3.22;;;;;;;;;;5068343;28;20844;-82
2023/09/17 13:01:59;;;;;;;5.30;3.25;;;;;;;;;;5072218;28;20487;-81
2023/09/17 13:04:51;;;;;;;4.90;3.00;;;;;;;;;;5070705;28;20027;-82
2023/09/17 13:07:19;;;;;;;4.95;2.85;;;;;;;;;;5044598;28;20428;-81
2023/09/17 13:09:45;;;;;;;4.72;3.25;;;;;;;;;;5071243;28;20111;-81
2023/09/17 13:12:14;;;;;;;6.43;3.50;;;;;;;;;;5070034;28;20017;-81
2023/09/17 13:14:40;;;;;;;9.55;4.20;;;;;;;;;;5069558;28;20028;-81
2023/09/17 13:17:06;;;;;;;4.85;2.88;;;;;;;;;;5051675;28;20485;-81
2023/09/17 13:19:31;;;;;;;6.40;3.42;;;;;;;;;;5054616;28;20134;-81
2023/09/17 13:21:57;;;;;;;5.50;3.45;;;;;;;;;;5053776;28;20025;-81
2023/09/17 13:24:22;;;;;;;5.75;3.15;;;;;;;;;;5071479;28;20024;-81
2023/09/17 13:26:48;;;;;;;6.18;3.13;;;;;;;;;;5071031;28;20029;-80
2023/09/17 13:29:13;;;;;;;4.85;3.50;;;;;;;;;;5067343;28;20032;-81
2023/09/17 13:31:40;;;;;;;4.40;2.80;;;;;;;;;;5071982;28;20031;-81
2023/09/17 13:34:08;;;;;;;3.78;2.25;;;;;;;;;;5071628;28;20028;-81
2023/09/17 13:36:34;;;;;;;3.78;2.67;;;;;;;;;;5069965;28;20473;-81
2023/09/17 13:39:00;;;;;;;3.67;2.45;;;;;;;;;;5072008;28;20035;-81
2023/09/17 13:41:28;;;;;;;4.68;3.13;;;;;;;;;;5069856;28;20032;-81
2023/09/17 13:43:57;;;;;;;4.43;3.20;;;;;;;;;;5072139;28;20112;-78
2023/09/17 13:46:24;;;;;;;7.03;3.25;;;;;;;;;;5066862;28;20504;-80
2023/09/17 13:48:53;;;;;;;6.07;3.42;;;;;;;;;;5072235;28;20498;-81
2023/09/17 13:51:18;;;;;;;6.75;3.70;;;;;;;;;;5050694;28;20025;-81
2023/09/17 13:53:44;;;;;;;6.10;3.67;;;;;;;;;;5072088;28;20456;-81
2023/09/17 13:56:09;;;;;;;6.50;2.78;;;;;;;;;;5068159;28;20453;-81
2023/09/17 13:58:35;;;;;;;4.90;3.00;;;;;;;;;;5071322;28;20058;-81
2023/09/17 14:01:01;;;;;;;7.72;3.05;;;;;;;;;;5070416;28;22551;-80
2023/09/17 14:03:27;;;;;;;3.78;2.28;;;;;;;;;;5052407;28;20024;-81
2023/09/17 14:05:52;;;;;;;4.78;3.28;;;;;;;;;;5070096;28;20033;-81
2023/09/17 14:08:17;;;;;;;8.27;3.58;;;;;;;;;;5070833;28;20024;-81
2023/09/17 14:10:43;;;;;;;4.72;2.92;;;;;;;;;;5069567;28;20024;-81
2023/09/17 14:13:08;;;;;;;3.95;2.10;;;;;;;;;;5071596;28;20384;-81
2023/09/17 14:15:36;;;;;;;3.50;2.05;;;;;;;;;;5050567;28;20060;-82
2023/09/17 14:18:01;;;;;;;3.20;1.95;;;;;;;;;;5069670;28;20027;-82
2023/09/17 14:20:27;;;;;;;4.35;2.58;;;;;;;;;;5067436;28;20025;-81
2023/09/17 14:22:53;;;;;;;3.67;2.40;;;;;;;;;;5061923;28;20041;-81
2023/09/17 14:25:18;;;;;;;3.92;2.30;;;;;;;;;;5053092;28;20112;-81
2023/09/17 14:27:44;;;;;;;2.83;2.15;;;;;;;;;;5031364;28;20039;-84
2023/09/17 14:30:21;;;;;;;3.75;2.22;;;;;;;;;;5037305;28;20021;-82
2023/09/17 14:32:47;;;;;;;3.17;2.30;;;;;;;;;;5061973;28;20036;-83
2023/09/17 14:35:12;;;;;;;2.75;1.92;;;;;;;;;;5050631;28;20037;-83
2023/09/17 14:37:38;;;;;;;6.57;2.05;;;;;;;;;;5053643;28;20385;-81
2023/09/17 14:40:03;;;;;;;2.38;1.88;;;;;;;;;;5032700;28;20108;-80
2023/09/17 14:42:29;;;;;;;3.13;1.90;;;;;;;;;;5058544;28;20024;-81
2023/09/17 14:44:54;;;;;;;2.33;1.60;;;;;;;;;;5069013;28;20064;-83
2023/09/17 14:47:20;;;;;;;3.95;1.75;;;;;;;;;;5042716;28;20036;-81
2023/09/17 14:49:46;;;;;;;1.60;1.27;;;;;;;;;;5044609;28;20063;-82
2023/09/17 14:52:12;;;;;;;3.17;1.65;;;;;;;;;;5043073;28;20025;-80
2023/09/17 14:54:37;;;;;;;3.00;2.03;;;;;;;;;;5061211;28;20163;-80
2023/09/17 14:57:03;;;;;;;2.78;1.90;;;;;;;;;;5048641;28;20560;-81
2023/09/17 14:59:28;;;;;;;4.35;2.05;;;;;;;;;;5043475;28;20388;-81
2023/09/17 15:02:00;;;;;;;2.72;1.98;;;;;;;;;;5050187;28;20484;-81
2023/09/17 15:04:28;;;;;;;2.05;1.50;;;;;;;;;;5058886;28;20055;-81
2023/09/17 15:06:54;;;;;;;3.00;1.92;;;;;;;;;;5068011;28;20039;-81
2023/09/17 15:09:19;;;;;;;3.40;2.00;;;;;;;;;;5050411;28;20029;-80
2023/09/17 15:11:46;;;;;;;2.75;1.77;;;;;;;;;;5045776;28;20032;-81
2023/09/17 15:14:11;;;;;;;2.15;1.65;;;;;;;;;;5068731;28;20025;-80
2023/09/17 15:16:38;;;;;;;5.75;2.33;;;;;;;;;;5065755;28;20024;-80
2023/09/17 15:19:04;;;;;;;6.35;2.10;;;;;;;;;;5061784;28;20052;-80
2023/09/17 15:21:30;;;;;;;2.30;1.33;;;;;;;;;;5055833;28;20031;-81
2023/09/17 15:23:55;;;;;;;2.45;1.90;;;;;;;;;;5065501;28;20468;-81
2023/09/17 15:26:20;;;;;;;2.15;1.48;;;;;;;;;;5066730;28;20035;-84
2023/09/17 15:28:47;;;;;;;2.92;1.98;;;;;;;;;;5065914;28;20749;-81
2023/09/17 15:31:13;;;;;;;2.08;1.67;;;;;;;;;;5057765;28;20032;-81
